sensor_id;sensor_type;location;lat;lon;timestamp;pressure;altitude;pressure_sealevel;temperature;humidity
37202;BME280;37799;52.390;6.136;2023-07-13T00:01:26;101289.03;;;15.59;100.00
37202;BME280;37799;52.390;6.136;2023-07-13T00:03:51;101287.25;;;15.60;100.00
37202;BME280;37799;52.390;6.136;2023-07-13T00:06:17;101285.22;;;15.68;100.00
37202;BME280;37799;52.390;6.136;2023-07-13T00:08:43;101285.50;;;15.82;100.00
37202;BME280;37799;52.390;6.136;2023-07-13T00:11:08;101281.13;;;15.83;100.00
37202;BME280;37799;52.390;6.136;2023-07-13T00:13:35;101281.75;;;15.89;100.00
37202;BME280;37799;52.390;6.136;2023-07-13T00:16:03;101282.59;;;15.90;100.00
37202;BME280;37799;52.390;6.136;2023-07-13T00:18:29;101284.72;;;16.01;100.00
37202;BME280;37799;52.390;6.136;2023-07-13T00:20:55;101287.81;;;15.90;100.00
37202;BME280;37799;52.390;6.136;2023-07-13T00:23:20;101286.84;;;15.92;100.00
37202;BME280;37799;52.390;6.136;2023-07-13T00:25:46;101290.28;;;15.93;100.00
37202;BME280;37799;52.390;6.136;2023-07-13T00:28:11;101288.41;;;15.97;100.00
37202;BME280;37799;52.390;6.136;2023-07-13T00:30:37;101292.13;;;16.11;100.00
37202;BME280;37799;52.390;6.136;2023-07-13T00:33:02;101298.59;;;16.03;100.00
37202;BME280;37799;52.390;6.136;2023-07-13T00:35:31;101304.34;;;15.90;100.00
37202;BME280;37799;52.390;6.136;2023-07-13T00:37:57;101305.59;;;15.80;100.00
37202;BME280;37799;52.390;6.136;2023-07-13T00:40:22;101304.56;;;15.84;100.00
37202;BME280;37799;52.390;6.136;2023-07-13T00:42:48;101302.38;;;15.74;100.00
37202;BME280;37799;52.390;6.136;2023-07-13T00:47:43;101300.09;;;15.66;100.00
37202;BME280;37799;52.390;6.136;2023-07-13T00:50:10;101296.78;;;15.61;100.00
37202;BME280;37799;52.390;6.136;2023-07-13T00:52:39;101298.50;;;15.62;100.00
37202;BME280;37799;52.390;6.136;2023-07-13T00:55:06;101293.25;;;15.62;100.00
37202;BME280;37799;52.390;6.136;2023-07-13T00:57:33;101291.97;;;15.50;100.00
37202;BME280;37799;52.390;6.136;2023-07-13T01:00:01;101298.84;;;15.53;100.00
37202;BME280;37799;52.390;6.136;2023-07-13T01:02:32;101297.13;;;15.52;100.00
37202;BME280;37799;52.390;6.136;2023-07-13T01:04:58;101304.19;;;15.50;100.00
37202;BME280;37799;52.390;6.136;2023-07-13T01:07:24;101308.66;;;15.46;100.00
37202;BME280;37799;52.390;6.136;2023-07-13T01:09:50;101308.19;;;15.37;100.00
37202;BME280;37799;52.390;6.136;2023-07-13T01:12:15;101304.66;;;15.38;100.00
37202;BME280;37799;52.390;6.136;2023-07-13T01:14:41;101304.88;;;15.31;100.00
37202;BME280;37799;52.390;6.136;2023-07-13T01:17:10;101309.59;;;15.22;100.00
37202;BME280;37799;52.390;6.136;2023-07-13T01:19:39;101310.44;;;15.22;100.00
37202;BME280;37799;52.390;6.136;2023-07-13T01:22:11;101306.25;;;15.18;100.00
37202;BME280;37799;52.390;6.136;2023-07-13T01:24:38;101311.72;;;15.12;100.00
37202;BME280;37799;52.390;6.136;2023-07-13T01:27:05;101315.38;;;15.07;100.00
37202;BME280;37799;52.390;6.136;2023-07-13T01:29:32;101311.00;;;15.07;100.00
37202;BME280;37799;52.390;6.136;2023-07-13T01:31:58;101325.06;;;15.03;100.00
37202;BME280;37799;52.390;6.136;2023-07-13T01:34:25;101314.53;;;15.06;100.00
37202;BME280;37799;52.390;6.136;2023-07-13T01:36:51;101307.00;;;14.98;100.00
37202;BME280;37799;52.390;6.136;2023-07-13T01:39:21;101309.44;;;15.03;100.00
37202;BME280;37799;52.390;6.136;2023-07-13T01:41:47;101304.28;;;15.01;100.00
37202;BME280;37799;52.390;6.136;2023-07-13T01:44:12;101301.28;;;15.12;100.00
37202;BME280;37799;52.390;6.136;2023-07-13T01:46:38;101299.00;;;15.03;100.00
37202;BME280;37799;52.390;6.136;2023-07-13T01:49:03;101304.94;;;15.07;100.00
37202;BME280;37799;52.390;6.136;2023-07-13T01:51:29;101292.63;;;15.10;100.00
37202;BME280;37799;52.390;6.136;2023-07-13T01:53:54;101293.31;;;15.15;100.00
37202;BME280;37799;52.390;6.136;2023-07-13T01:56:20;101297.69;;;15.15;100.00
37202;BME280;37799;52.390;6.136;2023-07-13T01:58:46;101303.75;;;15.15;100.00
37202;BME280;37799;52.390;6.136;2023-07-13T02:01:11;101313.75;;;15.27;100.00
37202;BME280;37799;52.390;6.136;2023-07-13T02:03:36;101316.28;;;15.29;100.00
37202;BME280;37799;52.390;6.136;2023-07-13T02:06:02;101306.19;;;15.20;100.00
37202;BME280;37799;52.390;6.136;2023-07-13T02:08:28;101315.50;;;15.27;100.00
37202;BME280;37799;52.390;6.136;2023-07-13T02:10:53;101308.13;;;15.15;100.00
37202;BME280;37799;52.390;6.136;2023-07-13T02:13:20;101312.63;;;15.11;100.00
37202;BME280;37799;52.390;6.136;2023-07-13T02:15:45;101308.97;;;15.15;100.00
37202;BME280;37799;52.390;6.136;2023-07-13T02:18:11;101309.88;;;15.14;100.00
37202;BME280;37799;52.390;6.136;2023-07-13T02:20:36;101310.78;;;15.13;100.00
37202;BME280;37799;52.390;6.136;2023-07-13T02:23:02;101311.00;;;15.07;100.00
37202;BME280;37799;52.390;6.136;2023-07-13T02:25:27;101316.09;;;15.10;100.00
37202;BME280;37799;52.390;6.136;2023-07-13T02:27:53;101317.78;;;15.13;100.00
37202;BME280;37799;52.390;6.136;2023-07-13T02:30:18;101314.53;;;15.06;100.00
37202;BME280;37799;52.390;6.136;2023-07-13T02:32:44;101302.72;;;14.96;100.00
37202;BME280;37799;52.390;6.136;2023-07-13T02:35:09;101314.19;;;14.92;100.00
37202;BME280;37799;52.390;6.136;2023-07-13T02:37:35;101302.97;;;14.90;100.00
37202;BME280;37799;52.390;6.136;2023-07-13T02:40:01;101306.53;;;14.87;100.00
37202;BME280;37799;52.390;6.136;2023-07-13T02:42:33;101307.53;;;14.83;100.00
37202;BME280;37799;52.390;6.136;2023-07-13T02:44:58;101312.00;;;14.80;100.00
37202;BME280;37799;52.390;6.136;2023-07-13T02:47:24;101309.66;;;14.73;100.00
37202;BME280;37799;52.390;6.136;2023-07-13T02:49:49;101306.28;;;14.70;100.00
37202;BME280;37799;52.390;6.136;2023-07-13T02:52:15;101311.78;;;14.62;100.00
37202;BME280;37799;52.390;6.136;2023-07-13T02:54:40;101316.75;;;14.68;100.00
37202;BME280;37799;52.390;6.136;2023-07-13T02:57:06;101320.38;;;14.64;100.00
37202;BME280;37799;52.390;6.136;2023-07-13T02:59:31;101315.22;;;14.63;100.00
37202;BME280;37799;52.390;6.136;2023-07-13T03:01:57;101317.09;;;14.59;100.00
37202;BME280;37799;52.390;6.136;2023-07-13T03:04:23;101324.00;;;14.60;100.00
37202;BME280;37799;52.390;6.136;2023-07-13T03:06:48;101319.00;;;14.54;100.00
37202;BME280;37799;52.390;6.136;2023-07-13T03:09:14;101333.94;;;14.49;100.00
37202;BME280;37799;52.390;6.136;2023-07-13T03:11:39;101325.13;;;14.53;100.00
37202;BME280;37799;52.390;6.136;2023-07-13T03:14:05;101330.44;;;14.50;100.00
37202;BME280;37799;52.390;6.136;2023-07-13T03:16:30;101329.75;;;14.43;100.00
37202;BME280;37799;52.390;6.136;2023-07-13T03:18:56;101338.81;;;14.33;100.00
37202;BME280;37799;52.390;6.136;2023-07-13T03:21:21;101337.13;;;14.31;100.00
37202;BME280;37799;52.390;6.136;2023-07-13T03:23:47;101340.34;;;14.39;100.00
37202;BME280;37799;52.390;6.136;2023-07-13T03:26:15;101340.59;;;14.31;100.00
37202;BME280;37799;52.390;6.136;2023-07-13T03:28:42;101341.34;;;14.35;100.00
37202;BME280;37799;52.390;6.136;2023-07-13T03:31:13;101340.56;;;14.33;100.00
37202;BME280;37799;52.390;6.136;2023-07-13T03:33:39;101340.63;;;14.30;100.00
37202;BME280;37799;52.390;6.136;2023-07-13T03:36:06;101345.22;;;14.23;100.00
37202;BME280;37799;52.390;6.136;2023-07-13T03:38:32;101345.78;;;14.33;100.00
37202;BME280;37799;52.390;6.136;2023-07-13T03:40:58;101351.06;;;14.30;100.00
37202;BME280;37799;52.390;6.136;2023-07-13T03:43:23;101351.84;;;14.32;100.00
37202;BME280;37799;52.390;6.136;2023-07-13T03:45:49;101343.91;;;14.36;100.00
37202;BME280;37799;52.390;6.136;2023-07-13T03:48:15;101353.03;;;14.50;100.00
37202;BME280;37799;52.390;6.136;2023-07-13T03:50:41;101356.69;;;14.44;100.00
37202;BME280;37799;52.390;6.136;2023-07-13T03:53:06;101356.03;;;14.37;100.00
37202;BME280;37799;52.390;6.136;2023-07-13T03:55:31;101357.94;;;14.32;100.00
37202;BME280;37799;52.390;6.136;2023-07-13T03:58:00;101356.13;;;14.34;100.00
37202;BME280;37799;52.390;6.136;2023-07-13T04:00:26;101360.38;;;14.37;100.00
37202;BME280;37799;52.390;6.136;2023-07-13T04:02:51;101363.19;;;14.31;100.00
37202;BME280;37799;52.390;6.136;2023-07-13T04:05:17;101365.88;;;14.28;100.00
37202;BME280;37799;52.390;6.136;2023-07-13T04:07:43;101369.25;;;14.31;100.00
37202;BME280;37799;52.390;6.136;2023-07-13T04:10:09;101371.72;;;14.36;100.00
37202;BME280;37799;52.390;6.136;2023-07-13T04:12:34;101372.69;;;14.32;100.00
37202;BME280;37799;52.390;6.136;2023-07-13T04:15:00;101374.44;;;14.33;100.00
37202;BME280;37799;52.390;6.136;2023-07-13T04:17:25;101383.78;;;14.38;100.00
37202;BME280;37799;52.390;6.136;2023-07-13T04:19:50;101379.38;;;14.40;100.00
37202;BME280;37799;52.390;6.136;2023-07-13T04:22:16;101377.53;;;14.44;100.00
37202;BME280;37799;52.390;6.136;2023-07-13T04:24:41;101382.66;;;14.47;100.00
37202;BME280;37799;52.390;6.136;2023-07-13T04:27:07;101381.81;;;14.47;100.00
37202;BME280;37799;52.390;6.136;2023-07-13T04:29:32;101381.81;;;14.47;100.00
37202;BME280;37799;52.390;6.136;2023-07-13T04:31:58;101381.75;;;14.48;100.00
37202;BME280;37799;52.390;6.136;2023-07-13T04:34:24;101385.28;;;14.47;100.00
37202;BME280;37799;52.390;6.136;2023-07-13T04:36:50;101390.47;;;14.47;100.00
37202;BME280;37799;52.390;6.136;2023-07-13T04:39:16;101393.56;;;14.58;100.00
37202;BME280;37799;52.390;6.136;2023-07-13T04:41:41;101390.94;;;14.58;100.00
37202;BME280;37799;52.390;6.136;2023-07-13T04:44:07;101393.25;;;14.67;100.00
37202;BME280;37799;52.390;6.136;2023-07-13T04:46:32;101396.81;;;14.65;100.00
37202;BME280;37799;52.390;6.136;2023-07-13T04:48:58;101394.03;;;14.69;100.00
37202;BME280;37799;52.390;6.136;2023-07-13T04:51:24;101387.72;;;14.77;100.00
37202;BME280;37799;52.390;6.136;2023-07-13T04:53:49;101391.06;;;14.80;100.00
37202;BME280;37799;52.390;6.136;2023-07-13T04:56:15;101388.94;;;14.91;100.00
37202;BME280;37799;52.390;6.136;2023-07-13T04:58:40;101393.50;;;14.86;100.00
37202;BME280;37799;52.390;6.136;2023-07-13T05:01:06;101397.03;;;14.84;100.00
37202;BME280;37799;52.390;6.136;2023-07-13T05:03:34;101395.03;;;14.92;100.00
37202;BME280;37799;52.390;6.136;2023-07-13T05:06:03;101400.06;;;14.96;100.00
37202;BME280;37799;52.390;6.136;2023-07-13T05:08:29;101405.69;;;15.09;100.00
37202;BME280;37799;52.390;6.136;2023-07-13T05:10:55;101405.50;;;15.15;100.00
37202;BME280;37799;52.390;6.136;2023-07-13T05:13:20;101406.16;;;15.20;100.00
37202;BME280;37799;52.390;6.136;2023-07-13T05:15:54;101409.47;;;15.25;100.00
37202;BME280;37799;52.390;6.136;2023-07-13T05:18:21;101410.81;;;15.35;100.00
37202;BME280;37799;52.390;6.136;2023-07-13T05:20:46;101421.06;;;15.42;100.00
37202;BME280;37799;52.390;6.136;2023-07-13T05:23:11;101416.41;;;15.50;100.00
37202;BME280;37799;52.390;6.136;2023-07-13T05:25:37;101415.97;;;15.62;100.00
37202;BME280;37799;52.390;6.136;2023-07-13T05:28:02;101423.13;;;15.80;100.00
37202;BME280;37799;52.390;6.136;2023-07-13T05:30:28;101423.44;;;15.95;100.00
37202;BME280;37799;52.390;6.136;2023-07-13T05:32:53;101428.06;;;16.10;100.00
37202;BME280;37799;52.390;6.136;2023-07-13T05:35:18;101429.09;;;16.28;100.00
37202;BME280;37799;52.390;6.136;2023-07-13T05:37:44;101431.09;;;16.63;100.00
37202;BME280;37799;52.390;6.136;2023-07-13T05:40:09;101438.59;;;17.33;100.00
37202;BME280;37799;52.390;6.136;2023-07-13T05:42:35;101441.03;;;18.13;100.00
37202;BME280;37799;52.390;6.136;2023-07-13T05:45:01;101440.22;;;18.66;100.00
37202;BME280;37799;52.390;6.136;2023-07-13T05:47:26;101439.53;;;19.13;100.00
37202;BME280;37799;52.390;6.136;2023-07-13T05:49:52;101444.56;;;19.51;100.00
37202;BME280;37799;52.390;6.136;2023-07-13T05:52:17;101449.44;;;19.90;100.00
37202;BME280;37799;52.390;6.136;2023-07-13T05:54:43;101451.72;;;20.43;100.00
37202;BME280;37799;52.390;6.136;2023-07-13T05:57:08;101458.38;;;20.65;100.00
37202;BME280;37799;52.390;6.136;2023-07-13T05:59:33;101452.84;;;20.99;100.00
37202;BME280;37799;52.390;6.136;2023-07-13T06:01:59;101452.84;;;20.99;100.00
37202;BME280;37799;52.390;6.136;2023-07-13T06:04:24;101462.75;;;21.10;100.00
37202;BME280;37799;52.390;6.136;2023-07-13T06:06:50;101455.09;;;21.05;100.00
37202;BME280;37799;52.390;6.136;2023-07-13T06:09:15;101450.53;;;21.23;100.00
37202;BME280;37799;52.390;6.136;2023-07-13T06:11:41;101471.34;;;21.56;100.00
37202;BME280;37799;52.390;6.136;2023-07-13T06:14:06;101464.94;;;21.60;100.00
37202;BME280;37799;52.390;6.136;2023-07-13T06:16:31;101468.31;;;21.48;100.00
37202;BME280;37799;52.390;6.136;2023-07-13T06:18:57;101472.44;;;21.24;100.00
37202;BME280;37799;52.390;6.136;2023-07-13T06:21:23;101471.69;;;20.77;100.00
37202;BME280;37799;52.390;6.136;2023-07-13T06:23:50;101469.53;;;20.54;100.00
37202;BME280;37799;52.390;6.136;2023-07-13T06:26:16;101477.34;;;20.24;100.00
37202;BME280;37799;52.390;6.136;2023-07-13T06:28:43;101474.75;;;20.08;100.00
37202;BME280;37799;52.390;6.136;2023-07-13T06:31:10;101474.66;;;20.10;100.00
37202;BME280;37799;52.390;6.136;2023-07-13T06:33:36;101486.50;;;19.85;100.00
37202;BME280;37799;52.390;6.136;2023-07-13T06:36:03;101481.06;;;19.72;100.00
37202;BME280;37799;52.390;6.136;2023-07-13T06:38:30;101487.66;;;19.64;100.00
37202;BME280;37799;52.390;6.136;2023-07-13T06:40:56;101484.94;;;19.65;100.00
37202;BME280;37799;52.390;6.136;2023-07-13T06:43:21;101483.34;;;19.79;100.00
37202;BME280;37799;52.390;6.136;2023-07-13T06:45:48;101486.44;;;20.02;100.00
37202;BME280;37799;52.390;6.136;2023-07-13T06:48:16;101485.50;;;20.03;100.00
37202;BME280;37799;52.390;6.136;2023-07-13T06:50:42;101494.91;;;20.39;100.00
37202;BME280;37799;52.390;6.136;2023-07-13T06:53:10;101494.06;;;20.23;100.00
37202;BME280;37799;52.390;6.136;2023-07-13T06:55:36;101492.31;;;20.08;100.00
37202;BME280;37799;52.390;6.136;2023-07-13T06:58:02;101491.75;;;20.17;100.00
37202;BME280;37799;52.390;6.136;2023-07-13T07:00:27;101493.47;;;20.49;100.00
37202;BME280;37799;52.390;6.136;2023-07-13T07:02:53;101502.41;;;20.77;100.00
37202;BME280;37799;52.390;6.136;2023-07-13T07:05:18;101499.91;;;20.44;100.00
37202;BME280;37799;52.390;6.136;2023-07-13T07:07:49;101500.91;;;20.41;100.00
37202;BME280;37799;52.390;6.136;2023-07-13T07:10:16;101505.78;;;20.33;100.00
37202;BME280;37799;52.390;6.136;2023-07-13T07:12:41;101500.75;;;20.28;100.00
37202;BME280;37799;52.390;6.136;2023-07-13T07:15:07;101504.72;;;19.72;100.00
37202;BME280;37799;52.390;6.136;2023-07-13T07:17:32;101504.81;;;19.71;100.00
37202;BME280;37799;52.390;6.136;2023-07-13T07:19:58;101512.41;;;19.42;100.00
37202;BME280;37799;52.390;6.136;2023-07-13T07:22:23;101502.03;;;19.90;100.00
37202;BME280;37799;52.390;6.136;2023-07-13T07:24:52;101502.47;;;20.61;100.00
37202;BME280;37799;52.390;6.136;2023-07-13T07:27:18;101507.81;;;20.89;100.00
37202;BME280;37799;52.390;6.136;2023-07-13T07:29:43;101505.84;;;20.93;100.00
37202;BME280;37799;52.390;6.136;2023-07-13T07:32:09;101516.69;;;20.73;100.00
37202;BME280;37799;52.390;6.136;2023-07-13T07:34:34;101511.88;;;20.95;100.00
37202;BME280;37799;52.390;6.136;2023-07-13T07:37:00;101502.16;;;21.97;100.00
37202;BME280;37799;52.390;6.136;2023-07-13T07:39:27;101503.03;;;22.38;100.00
37202;BME280;37799;52.390;6.136;2023-07-13T07:41:52;101511.84;;;22.25;100.00
37202;BME280;37799;52.390;6.136;2023-07-13T07:44:18;101504.94;;;22.36;100.00
37202;BME280;37799;52.390;6.136;2023-07-13T07:46:43;101511.28;;;23.01;100.00
37202;BME280;37799;52.390;6.136;2023-07-13T07:49:08;101517.75;;;23.22;100.00
37202;BME280;37799;52.390;6.136;2023-07-13T07:51:34;101510.00;;;22.93;100.00
37202;BME280;37799;52.390;6.136;2023-07-13T07:54:00;101501.03;;;22.69;100.00
37202;BME280;37799;52.390;6.136;2023-07-13T07:56:26;101496.72;;;21.86;100.00
37202;BME280;37799;52.390;6.136;2023-07-13T07:58:52;101495.34;;;21.66;100.00
37202;BME280;37799;52.390;6.136;2023-07-13T08:01:17;101505.41;;;22.43;100.00
37202;BME280;37799;52.390;6.136;2023-07-13T08:03:43;101504.94;;;23.16;100.00
37202;BME280;37799;52.390;6.136;2023-07-13T08:06:08;101507.16;;;23.98;100.00
37202;BME280;37799;52.390;6.136;2023-07-13T08:08:37;101520.22;;;24.49;100.00
37202;BME280;37799;52.390;6.136;2023-07-13T08:11:04;101508.75;;;23.88;100.00
37202;BME280;37799;52.390;6.136;2023-07-13T08:13:33;101508.31;;;23.56;100.00
37202;BME280;37799;52.390;6.136;2023-07-13T08:16:00;101510.13;;;23.30;100.00
37202;BME280;37799;52.390;6.136;2023-07-13T08:18:25;101508.53;;;23.15;100.00
37202;BME280;37799;52.390;6.136;2023-07-13T08:20:53;101509.47;;;22.61;100.00
37202;BME280;37799;52.390;6.136;2023-07-13T08:23:21;101511.91;;;22.37;100.00
37202;BME280;37799;52.390;6.136;2023-07-13T08:25:52;101509.53;;;21.92;100.00
37202;BME280;37799;52.390;6.136;2023-07-13T08:28:19;101512.78;;;22.51;100.00
37202;BME280;37799;52.390;6.136;2023-07-13T08:30:45;101513.25;;;22.84;100.00
37202;BME280;37799;52.390;6.136;2023-07-13T08:33:15;101514.34;;;22.94;100.00
37202;BME280;37799;52.390;6.136;2023-07-13T08:35:41;101514.44;;;22.93;100.00
37202;BME280;37799;52.390;6.136;2023-07-13T08:38:06;101508.88;;;21.74;100.00
37202;BME280;37799;52.390;6.136;2023-07-13T08:40:34;101505.59;;;21.70;100.00
37202;BME280;37799;52.390;6.136;2023-07-13T08:43:00;101516.63;;;22.59;100.00
37202;BME280;37799;52.390;6.136;2023-07-13T08:45:42;101510.22;;;23.16;100.00
37202;BME280;37799;52.390;6.136;2023-07-13T08:48:15;101516.59;;;23.26;100.00
37202;BME280;37799;52.390;6.136;2023-07-13T08:50:49;101506.53;;;23.06;100.00
37202;BME280;37799;52.390;6.136;2023-07-13T08:53:18;101505.22;;;22.59;100.00
37202;BME280;37799;52.390;6.136;2023-07-13T08:55:44;101510.53;;;22.99;100.00
37202;BME280;37799;52.390;6.136;2023-07-13T08:58:16;101515.75;;;23.38;100.00
37202;BME280;37799;52.390;6.136;2023-07-13T09:00:55;101526.66;;;23.46;100.00
37202;BME280;37799;52.390;6.136;2023-07-13T09:03:26;101522.00;;;23.63;100.00
37202;BME280;37799;52.390;6.136;2023-07-13T09:05:57;101522.09;;;23.74;100.00
37202;BME280;37799;52.390;6.136;2023-07-13T09:14:06;101537.00;;;24.37;100.00
37202;BME280;37799;52.390;6.136;2023-07-13T09:16:44;101532.31;;;23.91;100.00
37202;BME280;37799;52.390;6.136;2023-07-13T09:19:16;101531.94;;;23.72;100.00
37202;BME280;37799;52.390;6.136;2023-07-13T09:21:44;101527.06;;;24.28;100.00
37202;BME280;37799;52.390;6.136;2023-07-13T09:26:57;101527.34;;;24.84;100.00
37202;BME280;37799;52.390;6.136;2023-07-13T09:29:33;101529.97;;;24.84;100.00
37202;BME280;37799;52.390;6.136;2023-07-13T09:32:06;101535.94;;;25.34;100.00
37202;BME280;37799;52.390;6.136;2023-07-13T09:34:35;101541.75;;;25.61;100.00
37202;BME280;37799;52.390;6.136;2023-07-13T09:37:00;101538.00;;;26.20;94.09
37202;BME280;37799;52.390;6.136;2023-07-13T09:42:07;101535.81;;;26.68;86.11
37202;BME280;37799;52.390;6.136;2023-07-13T09:47:24;101532.72;;;26.63;89.46
37202;BME280;37799;52.390;6.136;2023-07-13T09:50:03;101532.59;;;26.10;92.63
37202;BME280;37799;52.390;6.136;2023-07-13T09:52:49;101530.53;;;25.57;95.91
37202;BME280;37799;52.390;6.136;2023-07-13T09:55:38;101520.50;;;24.92;97.06
37202;BME280;37799;52.390;6.136;2023-07-13T10:00:38;101526.78;;;23.58;100.00
37202;BME280;37799;52.390;6.136;2023-07-13T10:03:23;101531.97;;;22.94;100.00
37202;BME280;37799;52.390;6.136;2023-07-13T10:05:51;101536.38;;;22.40;100.00
37202;BME280;37799;52.390;6.136;2023-07-13T10:08:29;101547.28;;;22.21;100.00
37202;BME280;37799;52.390;6.136;2023-07-13T10:13:54;101568.66;;;22.30;100.00
37202;BME280;37799;52.390;6.136;2023-07-13T10:16:28;101565.06;;;23.12;100.00
37202;BME280;37799;52.390;6.136;2023-07-13T10:19:19;101570.34;;;24.39;100.00
37202;BME280;37799;52.390;6.136;2023-07-13T10:21:58;101581.03;;;24.86;96.67
37202;BME280;37799;52.390;6.136;2023-07-13T10:24:27;101582.59;;;25.01;98.69
37202;BME280;37799;52.390;6.136;2023-07-13T10:27:33;101590.69;;;24.39;100.00
37202;BME280;37799;52.390;6.136;2023-07-13T10:32:38;101596.31;;;24.58;100.00
37202;BME280;37799;52.390;6.136;2023-07-13T10:35:09;101594.25;;;25.34;100.00
37202;BME280;37799;52.390;6.136;2023-07-13T10:37:54;101599.06;;;25.97;98.00
37202;BME280;37799;52.390;6.136;2023-07-13T10:40:27;101597.72;;;26.03;95.49
37202;BME280;37799;52.390;6.136;2023-07-13T10:42:56;101585.31;;;25.70;95.47
37202;BME280;37799;52.390;6.136;2023-07-13T10:45:25;101586.97;;;24.65;100.00
37202;BME280;37799;52.390;6.136;2023-07-13T10:47:56;101589.44;;;24.06;100.00
37202;BME280;37799;52.390;6.136;2023-07-13T10:50:24;101592.66;;;23.61;100.00
37202;BME280;37799;52.390;6.136;2023-07-13T10:52:55;101590.47;;;22.88;100.00
37202;BME280;37799;52.390;6.136;2023-07-13T10:55:36;101596.72;;;22.73;100.00
37202;BME280;37799;52.390;6.136;2023-07-13T10:58:13;101602.94;;;22.45;100.00
37202;BME280;37799;52.390;6.136;2023-07-13T11:00:46;101591.81;;;22.54;100.00
37202;BME280;37799;52.390;6.136;2023-07-13T11:03:14;101590.75;;;22.56;100.00
37202;BME280;37799;52.390;6.136;2023-07-13T11:05:41;101588.59;;;23.03;100.00
37202;BME280;37799;52.390;6.136;2023-07-13T11:11:33;101594.38;;;25.32;100.00
37202;BME280;37799;52.390;6.136;2023-07-13T11:14:01;101597.75;;;25.80;100.00
37202;BME280;37799;52.390;6.136;2023-07-13T11:16:46;101583.88;;;26.10;100.00
37202;BME280;37799;52.390;6.136;2023-07-13T11:22:11;101594.59;;;26.31;91.00
37202;BME280;37799;52.390;6.136;2023-07-13T11:24:58;101594.00;;;27.14;86.38
37202;BME280;37799;52.390;6.136;2023-07-13T11:27:40;101591.34;;;27.35;79.70
37202;BME280;37799;52.390;6.136;2023-07-13T11:33:16;101584.25;;;26.06;84.39
37202;BME280;37799;52.390;6.136;2023-07-13T11:38:33;101601.88;;;25.03;91.83
37202;BME280;37799;52.390;6.136;2023-07-13T11:41:21;101615.88;;;24.68;100.00
37202;BME280;37799;52.390;6.136;2023-07-13T11:43:53;101615.16;;;24.17;100.00
37202;BME280;37799;52.390;6.136;2023-07-13T11:46:27;101611.38;;;23.83;100.00
37202;BME280;37799;52.390;6.136;2023-07-13T11:48:53;101603.97;;;23.88;100.00
37202;BME280;37799;52.390;6.136;2023-07-13T11:51:29;101603.66;;;24.55;100.00
37202;BME280;37799;52.390;6.136;2023-07-13T11:53:58;101598.31;;;25.15;100.00
37202;BME280;37799;52.390;6.136;2023-07-13T11:56:25;101606.56;;;25.46;100.00
37202;BME280;37799;52.390;6.136;2023-07-13T11:58:53;101616.06;;;25.37;100.00
37202;BME280;37799;52.390;6.136;2023-07-13T12:01:30;101611.22;;;25.20;100.00
37202;BME280;37799;52.390;6.136;2023-07-13T12:03:59;101613.22;;;25.05;100.00
37202;BME280;37799;52.390;6.136;2023-07-13T12:06:31;101608.44;;;24.74;100.00
37202;BME280;37799;52.390;6.136;2023-07-13T12:08:59;101606.72;;;23.99;100.00
37202;BME280;37799;52.390;6.136;2023-07-13T12:11:27;101615.84;;;23.43;100.00
37202;BME280;37799;52.390;6.136;2023-07-13T12:13:54;101610.63;;;22.62;100.00
37202;BME280;37799;52.390;6.136;2023-07-13T12:16:31;101621.31;;;21.89;100.00
37202;BME280;37799;52.390;6.136;2023-07-13T12:19:01;101625.84;;;21.43;100.00
37202;BME280;37799;52.390;6.136;2023-07-13T12:21:38;101622.63;;;20.92;100.00
37202;BME280;37799;52.390;6.136;2023-07-13T12:24:04;101616.25;;;20.33;100.00
37202;BME280;37799;52.390;6.136;2023-07-13T12:26:32;101614.94;;;20.09;100.00
37202;BME280;37799;52.390;6.136;2023-07-13T12:29:00;101616.06;;;19.87;100.00
37202;BME280;37799;52.390;6.136;2023-07-13T12:31:46;101621.41;;;19.86;100.00
37202;BME280;37799;52.390;6.136;2023-07-13T12:34:17;101615.75;;;19.93;100.00
37202;BME280;37799;52.390;6.136;2023-07-13T12:36:59;101610.09;;;20.66;100.00
37202;BME280;37799;52.390;6.136;2023-07-13T12:39:45;101619.13;;;21.82;100.00
37202;BME280;37799;52.390;6.136;2023-07-13T12:42:24;101623.47;;;23.35;100.00
37202;BME280;37799;52.390;6.136;2023-07-13T12:45:01;101617.19;;;24.63;100.00
37202;BME280;37799;52.390;6.136;2023-07-13T12:47:29;101623.09;;;25.49;100.00
37202;BME280;37799;52.390;6.136;2023-07-13T12:49:59;101633.44;;;25.99;100.00
37202;BME280;37799;52.390;6.136;2023-07-13T12:52:32;101624.63;;;26.32;100.00
37202;BME280;37799;52.390;6.136;2023-07-13T12:55:07;101616.84;;;26.73;100.00
37202;BME280;37799;52.390;6.136;2023-07-13T12:57:53;101629.97;;;27.18;97.44
37202;BME280;37799;52.390;6.136;2023-07-13T13:00:28;101626.75;;;27.56;96.41
37202;BME280;37799;52.390;6.136;2023-07-13T13:03:02;101629.44;;;27.36;88.14
37202;BME280;37799;52.390;6.136;2023-07-13T13:05:30;101625.72;;;26.40;89.18
37202;BME280;37799;52.390;6.136;2023-07-13T13:07:56;101630.78;;;25.99;95.07
37202;BME280;37799;52.390;6.136;2023-07-13T13:10:22;101633.34;;;25.43;100.00
37202;BME280;37799;52.390;6.136;2023-07-13T13:12:50;101631.69;;;25.64;100.00
37202;BME280;37799;52.390;6.136;2023-07-13T13:15:15;101635.09;;;25.77;100.00
37202;BME280;37799;52.390;6.136;2023-07-13T13:17:42;101632.16;;;25.58;100.00
37202;BME280;37799;52.390;6.136;2023-07-13T13:20:17;101638.19;;;25.14;100.00
37202;BME280;37799;52.390;6.136;2023-07-13T13:22:47;101641.97;;;24.86;100.00